Aviation Digital Data Service (ADDS)

Output produced by METARs form (1929 UTC 25 May 2015)
found at http://aviationweather.gov/adds/metars/
 
KAUG 251720Z 2518/2618 25009KT P6SM SCT100 
     FM252300 VRB05KT P6SM -SHRA OVC050 
     FM260400 18006KT 4SM -SHRA BR OVC012 
     FM261400 23011G17KT P6SM BKN050